Time;durP1;ratioP1;P1;durP2;ratioP2;P2;SDS_P1;SDS_P2;PMS_P1;PMS_P2;Temp;Humidity;BMP_temperature;BMP_pressure;BME280_temperature;BME280_humidity;BME280_pressure;Samples;Min_cycle;Max_cycle;Signal;HPM_P1;HPM_P2
2021/04/16 00:01:02;;;;;;;33.42;31.00;;;;;;;3.99;100.00;101360.66;4954681;28;20501;-88
2021/04/16 00:03:29;;;;;;;34.28;31.90;;;;;;;3.99;100.00;101379.06;4951801;28;20078;-88
2021/04/16 00:05:56;;;;;;;33.30;30.80;;;;;;;3.84;100.00;101384.84;4953170;28;20055;-91
2021/04/16 00:08:26;;;;;;;33.03;30.38;;;;;;;3.92;100.00;101367.50;4956031;28;20690;-88
2021/04/16 00:10:58;;;;;;;31.65;29.17;;;;;;;3.85;100.00;101383.84;4954162;28;20051;-90
2021/04/16 00:13:28;;;;;;;35.20;31.67;;;;;;;4.24;100.00;101380.19;4953700;28;20382;-88
2021/04/16 00:15:55;;;;;;;37.42;34.33;;;;;;;4.02;100.00;101376.97;4956194;29;20469;-88
2021/04/16 00:18:24;;;;;;;30.90;28.38;;;;;;;3.78;100.00;101376.69;4952983;28;20043;-90
2021/04/16 00:21:03;;;;;;;31.98;29.50;;;;;;;5.16;100.00;101369.31;4953513;28;20054;-89
2021/04/16 00:23:31;;;;;;;33.08;30.67;;;;;;;3.95;100.00;101381.16;4951642;28;20051;-87
2021/04/16 00:26:01;;;;;;;31.52;28.98;;;;;;;3.85;100.00;101377.78;4953843;28;20054;-89
2021/04/16 00:28:36;;;;;;;33.47;31.02;;;;;;;3.78;100.00;101374.06;4955375;28;20051;-89
2021/04/16 00:31:18;;;;;;;32.58;29.98;;;;;;;4.01;100.00;101374.50;4954210;28;20043;-87
2021/04/16 00:33:45;;;;;;;31.08;28.60;;;;;;;3.68;100.00;101374.94;4940765;29;20428;-88
2021/04/16 00:36:14;;;;;;;32.47;29.98;;;;;;;3.72;100.00;101378.09;4954454;28;20048;-91
2021/04/16 00:38:41;;;;;;;31.75;29.13;;;;;;;3.77;100.00;101367.16;4953336;28;20050;-90
2021/04/16 00:41:14;;;;;;;31.73;29.15;;;;;;;3.81;100.00;101365.88;4955080;28;20070;-90
2021/04/16 00:43:43;;;;;;;;;;;;;;;3.81;100.00;101364.09;4949200;28;20394;-88
2021/04/16 00:46:36;;;;;;;34.03;31.35;;;;;;;5.08;100.00;101363.97;4955881;28;20328;-88
2021/04/16 00:49:09;;;;;;;32.35;29.85;;;;;;;3.93;100.00;101362.09;4954415;28;20047;-88
2021/04/16 00:51:45;;;;;;;32.20;29.70;;;;;;;3.95;100.00;101375.91;4959767;28;20055;-88
2021/04/16 00:54:18;;;;;;;32.83;30.25;;;;;;;3.81;100.00;101373.75;4952660;28;20047;-89
2021/04/16 00:56:47;;;;;;;31.08;28.67;;;;;;;3.67;100.00;101365.41;4954607;28;20138;-88
2021/04/16 00:59:23;;;;;;;30.77;28.48;;;;;;;3.72;100.00;101382.53;4956358;28;20047;-88
2021/04/16 01:01:50;;;;;;;32.78;30.38;;;;;;;3.85;100.00;101373.34;4954670;28;20048;-88
2021/04/16 01:04:18;;;;;;;32.13;29.63;;;;;;;3.88;100.00;101375.69;4954109;28;20600;-88
2021/04/16 01:06:54;;;;;;;29.10;26.88;;;;;;;4.00;100.00;101384.19;4958166;28;20047;-89
2021/04/16 01:09:21;;;;;;;32.58;29.88;;;;;;;3.68;100.00;101387.25;4954295;28;20134;-88
2021/04/16 01:11:49;;;;;;;30.85;28.60;;;;;;;3.86;100.00;101385.50;4953699;28;20459;-88
2021/04/16 01:14:16;;;;;;;31.30;28.88;;;;;;;3.70;100.00;101385.31;4953879;28;20425;-88
2021/04/16 01:16:45;;;;;;;30.13;27.83;;;;;;;3.98;100.00;101395.81;4954158;28;20055;-88
2021/04/16 01:19:24;;;;;;;33.22;30.83;;;;;;;3.60;100.00;101387.13;4954461;29;20052;-88
2021/04/16 01:22:02;;;;;;;33.40;30.83;;;;;;;3.41;100.00;101383.59;4952767;28;20465;-88
2021/04/16 01:24:33;;;;;;;32.80;30.40;;;;;;;3.35;100.00;101384.16;4954450;28;20051;-89
2021/04/16 01:27:03;;;;;;;32.75;30.15;;;;;;;3.32;100.00;101381.81;4953977;28;20050;-88
2021/04/16 01:29:30;;;;;;;31.60;29.20;;;;;;;3.33;100.00;101385.28;4953854;28;20076;-88
2021/04/16 01:31:57;;;;;;;31.48;28.98;;;;;;;3.21;100.00;101390.72;4953692;28;20536;-89
2021/04/16 01:34:27;;;;;;;33.47;30.67;;;;;;;3.09;100.00;101399.72;4957763;29;20059;-88
2021/04/16 01:36:56;;;;;;;34.75;32.17;;;;;;;3.59;100.00;101396.00;4955870;28;20406;-88
2021/04/16 01:39:30;;;;;;;32.63;29.95;;;;;;;3.49;100.00;101395.19;4957156;28;20062;-87
2021/04/16 01:42:01;;;;;;;33.60;30.83;;;;;;;3.12;100.00;101396.81;4960142;28;20039;-88
2021/04/16 01:44:30;;;;;;;32.35;29.52;;;;;;;3.16;100.00;101395.53;4954446;28;20051;-88
2021/04/16 01:47:00;;;;;;;32.58;29.83;;;;;;;3.07;100.00;101403.44;4956975;28;20054;-88
2021/04/16 01:49:31;;;;;;;32.95;30.20;;;;;;;3.45;100.00;101399.91;4957427;29;20051;-87
2021/04/16 01:52:10;;;;;;;35.42;32.53;;;;;;;3.05;100.00;101403.56;4954567;28;20058;-88
2021/04/16 01:54:40;;;;;;;32.58;29.77;;;;;;;2.93;100.00;101402.88;4955951;28;20078;-89
2021/04/16 01:57:10;;;;;;;32.17;29.23;;;;;;;2.81;100.00;101400.53;4960910;28;20055;-88
2021/04/16 01:59:40;;;;;;;32.80;29.98;;;;;;;2.76;100.00;101395.72;4973934;28;20047;-88
2021/04/16 02:02:11;;;;;;;33.05;29.98;;;;;;;2.57;100.00;101399.16;4953038;28;20051;-88
2021/04/16 02:04:38;;;;;;;33.42;30.63;;;;;;;2.58;100.00;101410.50;4954821;29;20070;-88
2021/04/16 02:07:07;;;;;;;34.47;31.50;;;;;;;2.56;100.00;101404.53;4956485;28;20082;-90
2021/04/16 02:09:39;;;;;;;34.30;31.40;;;;;;;2.44;100.00;101411.72;4956515;28;20117;-88
2021/04/16 02:12:12;;;;;;;31.92;29.08;;;;;;;2.65;100.00;101406.34;5035656;23;20079;-88
2021/04/16 02:14:39;;;;;;;33.22;30.33;;;;;;;2.18;100.00;101400.88;4923916;29;20142;-88
2021/04/16 02:17:07;;;;;;;32.95;30.15;;;;;;;2.30;100.00;101402.47;4925872;29;20064;-88
2021/04/16 02:19:34;;;;;;;32.47;29.67;;;;;;;2.22;100.00;101407.53;4931888;29;20056;-89
2021/04/16 02:22:00;;;;;;;33.10;30.15;;;;;;;2.32;100.00;101404.94;4924417;29;20056;-89
2021/04/16 02:24:27;;;;;;;32.83;30.20;;;;;;;2.20;100.00;101409.44;4929393;29;20057;-88
2021/04/16 02:26:53;;;;;;;34.50;31.60;;;;;;;2.12;100.00;101417.16;4922311;29;20060;-88
2021/04/16 02:29:22;;;;;;;32.50;29.52;;;;;;;1.98;100.00;101418.34;4917642;29;20103;-89
2021/04/16 02:31:50;;;;;;;32.08;29.15;;;;;;;2.04;100.00;101410.78;4924111;29;20052;-88
2021/04/16 02:34:18;;;;;;;34.28;30.88;;;;;;;1.98;100.00;101420.97;4926616;29;20054;-88
2021/04/16 02:36:45;;;;;;;32.65;29.67;;;;;;;2.13;100.00;101421.44;4925913;29;20497;-88
2021/04/16 02:39:13;;;;;;;33.90;30.83;;;;;;;1.96;100.00;101418.47;4927815;29;20040;-88
2021/04/16 02:41:41;;;;;;;37.13;33.50;;;;;;;2.00;100.00;101414.66;4923990;29;20433;-89
2021/04/16 02:44:09;;;;;;;32.15;29.20;;;;;;;2.02;100.00;101417.94;4926758;29;20051;-89
2021/04/16 02:46:38;;;;;;;33.90;30.40;;;;;;;2.06;100.00;101429.00;4925416;29;20059;-88
2021/04/16 02:49:05;;;;;;;33.92;30.67;;;;;;;2.04;100.00;101421.28;4927823;29;20052;-88
2021/04/16 02:51:32;;;;;;;33.88;30.58;;;;;;;2.10;100.00;101421.72;4950153;29;20059;-88
2021/04/16 02:54:00;;;;;;;34.40;31.27;;;;;;;2.05;100.00;101417.69;4939796;29;20413;-89
2021/04/16 02:56:28;;;;;;;33.15;30.05;;;;;;;2.21;100.00;101422.44;4942022;29;20051;-88
2021/04/16 02:58:57;;;;;;;34.15;30.88;;;;;;;2.09;100.00;101422.66;4945386;29;20059;-88
2021/04/16 03:01:25;;;;;;;39.25;35.67;;;;;;;2.20;100.00;101423.38;4943754;29;20052;-88
2021/04/16 03:03:54;;;;;;;33.38;30.27;;;;;;;2.03;100.00;101421.41;4943804;29;20048;-88
2021/04/16 03:06:25;;;;;;;32.22;29.17;;;;;;;2.16;100.00;101419.38;4948223;29;20055;-88
2021/04/16 03:08:52;;;;;;;32.25;29.10;;;;;;;1.99;100.00;101425.25;4933366;29;20462;-88
2021/04/16 03:11:19;;;;;;;32.28;29.38;;;;;;;2.14;100.00;101434.41;4941647;28;20130;-88
2021/04/16 03:13:45;;;;;;;33.22;29.92;;;;;;;2.01;100.00;101428.56;4943181;29;20062;-88
2021/04/16 03:16:12;;;;;;;35.35;31.85;;;;;;;2.08;100.00;101434.09;4942487;29;20058;-88
2021/04/16 03:18:41;;;;;;;35.50;32.33;;;;;;;1.96;100.00;101438.63;4944044;29;20047;-88
2021/04/16 03:21:08;;;;;;;31.40;28.40;;;;;;;1.98;100.00;101436.69;4950525;29;20052;-88
2021/04/16 03:23:35;;;;;;;33.13;30.17;;;;;;;2.16;100.00;101440.34;4939449;29;20054;-88
2021/04/16 03:26:04;;;;;;;34.22;30.98;;;;;;;2.02;100.00;101438.09;4943301;29;20043;-88
2021/04/16 03:28:30;;;;;;;33.47;30.13;;;;;;;2.06;100.00;101442.13;4943061;29;20047;-89
2021/04/16 03:30:57;;;;;;;47.72;42.95;;;;;;;1.97;100.00;101438.50;4943292;29;20113;-87
2021/04/16 03:33:23;;;;;;;52.28;46.60;;;;;;;2.21;100.00;101443.41;4940690;29;20055;-89
2021/04/16 03:35:49;;;;;;;52.00;47.08;;;;;;;2.04;100.00;101444.84;4950691;29;20051;-88
2021/04/16 03:38:16;;;;;;;52.58;47.60;;;;;;;2.04;100.00;101447.47;4938931;29;20429;-88
2021/04/16 03:40:43;;;;;;;53.25;47.65;;;;;;;1.83;100.00;101444.91;4940562;29;20047;-87
2021/04/16 03:43:09;;;;;;;34.25;31.05;;;;;;;1.84;100.00;101445.72;4942149;29;20107;-88
2021/04/16 03:45:36;;;;;;;33.35;30.10;;;;;;;1.84;100.00;101450.97;4941772;29;20107;-88
2021/04/16 03:48:02;;;;;;;32.72;29.48;;;;;;;1.69;100.00;101454.91;4942323;29;20059;-87
2021/04/16 03:50:31;;;;;;;33.72;30.65;;;;;;;1.61;100.00;101455.56;4951475;29;20048;-88
2021/04/16 03:52:59;;;;;;;32.30;29.30;;;;;;;1.87;100.00;101452.50;4939474;29;20048;-88
2021/04/16 03:55:28;;;;;;;33.20;29.92;;;;;;;1.75;100.00;101460.44;4940201;29;20414;-89
2021/04/16 03:57:55;;;;;;;36.58;33.08;;;;;;;1.91;100.00;101457.38;4940831;29;20107;-89
2021/04/16 04:00:39;;;;;;;33.33;29.88;;;;;;;1.84;100.00;101461.44;4944472;29;20051;-90
2021/04/16 04:03:17;;;;;;;32.90;29.88;;;;;;;1.83;100.00;101460.63;4934418;29;20056;-90
2021/04/16 04:05:46;;;;;;;34.28;31.05;;;;;;;1.81;100.00;101464.31;4940775;29;20062;-86
2021/04/16 04:08:26;;;;;;;33.83;30.70;;;;;;;1.88;100.00;101469.91;4947937;29;20047;-89
2021/04/16 04:10:56;;;;;;;36.60;33.08;;;;;;;1.88;100.00;101472.53;4916320;29;20044;-88
2021/04/16 04:16:07;;;;;;;34.85;31.25;;;;;;;1.77;100.00;101473.41;4915499;29;20052;-88
2021/04/16 04:18:35;;;;;;;32.10;29.08;;;;;;;1.93;100.00;101475.56;4928640;29;20115;-88
2021/04/16 04:21:05;;;;;;;31.13;28.35;;;;;;;2.11;100.00;101473.97;4926175;29;20078;-87
2021/04/16 04:23:55;;;;;;;31.63;28.40;;;;;;;2.09;100.00;101477.69;4949652;29;20047;-88
2021/04/16 04:26:23;;;;;;;33.42;30.40;;;;;;;2.20;100.00;101481.03;4933459;29;20094;-88
2021/04/16 04:28:50;;;;;;;34.28;31.10;;;;;;;2.15;100.00;101475.38;4938649;29;20044;-89
2021/04/16 04:31:19;;;;;;;34.85;31.65;;;;;;;2.21;100.00;101487.09;4946814;29;20047;-88
2021/04/16 04:33:46;;;;;;;33.22;30.40;;;;;;;2.34;100.00;101486.91;4915517;29;20193;-88
2021/04/16 04:36:14;;;;;;;33.85;30.92;;;;;;;2.37;100.00;101481.41;4934523;29;20048;-89
2021/04/16 04:38:40;;;;;;;32.72;29.83;;;;;;;2.33;100.00;101482.59;4943443;29;20074;-89
2021/04/16 04:41:33;;;;;;;31.85;28.95;;;;;;;2.47;100.00;101487.47;4934968;29;20060;-88
2021/04/16 04:44:02;;;;;;;35.60;32.80;;;;;;;2.73;100.00;101488.66;4943195;29;20047;-89
2021/04/16 04:46:28;;;;;;;37.92;34.58;;;;;;;2.72;100.00;101483.53;4949450;29;20058;-88
2021/04/16 04:48:57;;;;;;;33.33;30.42;;;;;;;2.92;100.00;101493.09;4934691;29;20052;-88
2021/04/16 04:51:27;;;;;;;32.72;29.92;;;;;;;2.92;100.00;101500.94;4946575;28;20051;-92
2021/04/16 04:53:55;;;;;;;32.53;29.80;;;;;;;3.12;100.00;101491.31;4947455;29;20060;-89
2021/04/16 04:56:26;;;;;;;31.17;28.55;;;;;;;3.34;100.00;101495.44;4943449;29;20058;-88
2021/04/16 04:58:57;;;;;;;34.63;31.83;;;;;;;3.43;100.00;101496.41;4944585;29;20051;-88
2021/04/16 05:01:26;;;;;;;38.28;35.03;;;;;;;3.83;100.00;101498.78;4935712;29;20509;-89
2021/04/16 05:04:21;;;;;;;34.30;31.45;;;;;;;3.89;100.00;101503.47;4940002;29;20569;-88
2021/04/16 05:06:50;;;;;;;36.42;33.40;;;;;;;4.06;100.00;101508.97;4931740;29;20056;-87
2021/04/16 05:09:18;;;;;;;32.88;30.17;;;;;;;4.88;100.00;101507.31;4936366;29;20064;-88
2021/04/16 05:12:03;;;;;;;33.45;30.67;;;;;;;5.17;100.00;101509.69;4949677;28;20064;-88
2021/04/16 05:14:48;;;;;;;30.45;28.05;;;;;;;4.92;100.00;101503.38;4940749;29;20414;-88
2021/04/16 05:17:34;;;;;;;34.35;31.52;;;;;;;4.85;100.00;101500.53;4942855;29;20098;-89
2021/04/16 05:23:03;;;;;;;36.63;33.63;;;;;;;4.50;100.00;101503.91;4939475;29;20545;-88
2021/04/16 05:25:36;;;;;;;33.50;30.75;;;;;;;4.71;100.00;101496.59;4943767;29;20445;-89
2021/04/16 05:28:07;;;;;;;28.38;25.98;;;;;;;6.16;100.00;101493.59;4936074;29;20473;-89
2021/04/16 05:30:35;;;;;;;34.33;31.58;;;;;;;4.99;100.00;101504.44;4931592;29;20051;-89
2021/04/16 05:33:02;;;;;;;36.88;34.08;;;;;;;5.37;100.00;101498.03;4895210;29;20086;-89
2021/04/16 05:35:29;;;;;;;34.03;31.33;;;;;;;5.01;100.00;101490.16;4935743;29;20051;-89
2021/04/16 05:37:57;;;;;;;35.22;32.35;;;;;;;5.30;100.00;101493.53;4941677;29;20059;-89
2021/04/16 05:40:24;;;;;;;36.47;33.53;;;;;;;5.32;100.00;101504.72;5094130;23;20470;-88
2021/04/16 05:42:51;;;;;;;32.53;30.13;;;;;;;5.90;100.00;101498.88;4945722;29;20493;-88
2021/04/16 05:45:22;;;;;;;37.33;34.67;;;;;;;5.41;100.00;101499.38;4944499;29;20059;-89
2021/04/16 05:47:50;;;;;;;33.67;31.17;;;;;;;5.39;100.00;101500.53;4944889;29;20605;-88
2021/04/16 05:50:18;;;;;;;31.60;29.23;;;;;;;6.11;100.00;101502.00;4946452;29;20051;-90
2021/04/16 05:52:51;;;;;;;32.05;29.67;;;;;;;6.13;100.00;101500.03;4945568;29;20496;-87
2021/04/16 05:55:21;;;;;;;32.10;29.60;;;;;;;6.43;100.00;101498.66;4944402;29;20066;-89
2021/04/16 05:57:47;;;;;;;33.85;31.00;;;;;;;5.72;100.00;101505.03;4934766;29;20049;-88
2021/04/16 06:00:17;;;;;;;31.55;29.27;;;;;;;5.93;100.00;101499.44;4946199;29;20078;-87
2021/04/16 06:02:43;;;;;;;32.72;30.33;;;;;;;5.82;100.00;101488.31;4949380;29;20523;-88
2021/04/16 06:05:14;;;;;;;34.03;31.20;;;;;;;6.53;100.00;101498.53;4948519;29;20052;-88
2021/04/16 06:07:50;;;;;;;39.03;36.05;;;;;;;5.89;100.00;101503.31;4951285;29;20065;-88
2021/04/16 06:10:25;;;;;;;31.88;29.50;;;;;;;6.91;100.00;101506.06;4951539;29;20062;-87
2021/04/16 06:12:55;;;;;;;35.58;32.78;;;;;;;6.41;100.00;101497.16;4930174;29;20063;-88
2021/04/16 06:15:38;;;;;;;38.10;35.22;;;;;;;6.12;100.00;101500.19;4919736;29;20063;-87
2021/04/16 06:18:06;;;;;;;36.10;33.42;;;;;;;6.20;100.00;101497.56;4928446;29;20055;-87
2021/04/16 06:20:36;;;;;;;41.08;37.67;;;;;;;6.48;100.00;101492.91;4930668;29;20067;-87
2021/04/16 06:23:03;;;;;;;36.17;33.38;;;;;;;7.41;100.00;101505.91;4931551;29;20137;-87
2021/04/16 06:25:34;;;;;;;36.63;33.92;;;;;;;7.51;100.00;101493.38;4928319;29;20480;-88
2021/04/16 06:28:01;;;;;;;32.80;30.40;;;;;;;6.86;100.00;101498.63;4929747;29;20066;-87
2021/04/16 06:30:35;;;;;;;35.63;32.75;;;;;;;6.85;100.00;101489.06;4929421;29;20086;-88
2021/04/16 06:33:20;;;;;;;33.47;31.10;;;;;;;6.57;100.00;101499.06;4922528;29;20079;-88
2021/04/16 06:36:19;;;;;;;35.70;33.20;;;;;;;8.08;100.00;101515.41;4929456;29;20051;-88
2021/04/16 06:38:46;;;;;;;37.75;35.10;;;;;;;7.53;100.00;101501.13;4928257;29;20055;-88
2021/04/16 06:41:23;;;;;;;37.58;34.88;;;;;;;6.96;100.00;101496.66;4929104;29;20062;-88
2021/04/16 06:44:00;;;;;;;41.67;39.05;;;;;;;7.43;100.00;101493.38;4931454;29;20062;-88
2021/04/16 06:46:30;;;;;;;41.05;38.60;;;;;;;7.41;100.00;101513.84;4927630;29;20086;-88
2021/04/16 06:49:04;;;;;;;39.13;36.40;;;;;;;8.03;100.00;101510.63;4933760;29;20059;-88
2021/04/16 06:52:14;;;;;;;37.63;35.13;;;;;;;9.67;100.00;101501.69;4934297;29;20051;-87
2021/04/16 06:55:21;;;;;;;38.58;36.15;;;;;;;7.58;100.00;101509.38;4934028;29;20055;-88
2021/04/16 06:58:12;;;;;;;35.80;33.60;;;;;;;7.63;100.00;101496.50;4939205;29;20059;-87
2021/04/16 07:00:45;;;;;;;38.05;35.67;;;;;;;7.62;100.00;101501.94;4933159;29;20062;-88
2021/04/16 07:03:18;;;;;;;39.65;36.97;;;;;;;8.46;100.00;101501.38;4927608;29;20581;-88
2021/04/16 07:05:51;;;;;;;37.60;34.92;;;;;;;8.00;100.00;101509.16;4928244;29;20060;-88
2021/04/16 07:08:26;;;;;;;37.10;34.60;;;;;;;8.11;100.00;101505.31;4926279;29;20088;-87
2021/04/16 07:10:57;;;;;;;38.65;36.25;;;;;;;7.55;100.00;101501.78;4929710;29;20055;-89
2021/04/16 07:13:39;;;;;;;44.28;41.47;;;;;;;7.94;100.00;101520.41;4929098;29;20067;-88
2021/04/16 07:16:09;;;;;;;38.30;36.00;;;;;;;8.68;100.00;101505.09;4928910;29;20461;-87
2021/04/16 07:18:40;;;;;;;42.90;40.47;;;;;;;8.15;100.00;101529.63;4930183;29;20063;-88
2021/04/16 07:21:15;;;;;;;41.25;38.72;;;;;;;8.31;100.00;101518.16;4928652;29;20091;-88
2021/04/16 07:23:50;;;;;;;42.08;39.67;;;;;;;9.26;100.00;101510.00;4928523;29;20066;-88
2021/04/16 07:26:35;;;;;;;43.17;40.63;;;;;;;9.21;100.00;101504.44;4930866;29;20059;-87
2021/04/16 07:29:03;;;;;;;44.25;41.47;;;;;;;8.53;100.00;101509.47;4928006;29;20624;-87
2021/04/16 07:31:42;;;;;;;44.92;42.13;;;;;;;8.90;100.00;101510.59;4930536;29;20056;-87
2021/04/16 07:34:29;;;;;;;40.38;38.20;;;;;;;8.77;100.00;101510.34;4931803;29;20047;-89
2021/04/16 07:37:16;;;;;;;40.40;38.05;;;;;;;8.77;100.00;101511.16;4928107;29;20130;-87
2021/04/16 07:39:48;;;;;;;40.83;38.35;;;;;;;8.19;100.00;101515.03;4931540;29;21064;-88
2021/04/16 07:42:21;;;;;;;39.00;36.70;;;;;;;8.66;100.00;101516.88;4932035;29;20217;-88
2021/04/16 07:45:02;;;;;;;38.67;36.17;;;;;;;9.80;100.00;101515.16;4932326;29;20051;-88
2021/04/16 07:47:34;;;;;;;39.40;37.20;;;;;;;10.36;100.00;101512.91;4931146;29;20131;-88
2021/04/16 07:50:04;;;;;;;39.65;37.25;;;;;;;9.56;100.00;101516.22;4926683;29;20513;-87
2021/04/16 07:52:35;;;;;;;40.92;38.60;;;;;;;9.26;100.00;101510.84;4928566;29;20048;-88
2021/04/16 07:55:16;;;;;;;42.10;39.78;;;;;;;8.90;100.00;101502.66;4928652;29;20580;-88
2021/04/16 07:58:00;;;;;;;35.35;33.35;;;;;;;10.13;100.00;101505.00;4929604;29;20086;-87
2021/04/16 08:00:33;;;;;;;36.58;34.38;;;;;;;9.17;100.00;101503.97;4930901;29;20137;-88
2021/04/16 08:03:09;;;;;;;34.40;32.25;;;;;;;9.76;100.00;101509.38;4930960;29;20055;-87
2021/04/16 08:05:42;;;;;;;35.33;33.17;;;;;;;9.56;100.00;101509.09;4930471;29;20047;-88
2021/04/16 08:08:29;;;;;;;36.95;34.42;;;;;;;9.90;100.00;101505.13;4930777;29;20644;-87
2021/04/16 08:11:14;;;;;;;34.28;32.13;;;;;;;8.78;100.00;101499.59;4934912;29;20402;-88
2021/04/16 08:14:04;;;;;;;35.95;33.65;;;;;;;9.25;100.00;101492.47;4931653;29;20118;-88
2021/04/16 08:16:49;;;;;;;;;;;;;;;;;;;;;
2021/04/16 08:19:31;;;;;;;33.22;31.40;;;;;;;10.37;100.00;101509.25;4924511;29;20065;-86
2021/04/16 08:22:03;;;;;;;38.00;35.63;;;;;;;9.96;100.00;101516.84;4929657;29;21206;-87
2021/04/16 08:24:37;;;;;;;39.35;36.85;;;;;;;9.66;100.00;101500.88;4927537;29;20051;-87
2021/04/16 08:27:19;;;;;;;39.03;36.92;;;;;;;9.73;95.02;101503.63;4929243;29;20175;-87
2021/04/16 08:29:53;;;;;;;37.38;35.58;;;;;;;10.64;100.00;101522.84;4903617;29;20059;-88
2021/04/16 08:32:33;;;;;;;37.60;35.50;;;;;;;10.22;100.00;101519.84;4929241;29;20179;-87
2021/04/16 08:35:06;;;;;;;35.97;34.08;;;;;;;10.07;99.94;101514.53;4928298;29;20060;-87
2021/04/16 08:37:39;;;;;;;37.95;36.05;;;;;;;9.50;91.79;101512.47;4926646;29;20790;-86
2021/04/16 08:40:11;;;;;;;32.50;30.77;;;;;;;9.77;100.00;101515.50;4926515;29;20234;-88
2021/04/16 08:42:38;;;;;;;;;;;;;;;9.77;87.51;101507.56;4929130;29;20613;-87
2021/04/16 08:45:11;;;;;;;37.13;35.05;;;;;;;10.24;96.76;101504.56;4931222;29;20364;-87
2021/04/16 08:47:49;;;;;;;34.83;32.83;;;;;;;9.94;87.72;101505.56;4931018;29;20087;-87
2021/04/16 08:50:21;;;;;;;30.77;29.08;;;;;;;10.27;85.07;101506.88;4931198;29;20158;-88
2021/04/16 08:52:56;;;;;;;32.30;30.30;;;;;;;9.68;83.94;101512.13;4933143;29;20711;-87
2021/04/16 08:55:35;;;;;;;35.28;33.28;;;;;;;10.18;76.33;101504.47;4899592;29;20056;-87
2021/04/16 08:58:07;;;;;;;33.35;31.65;;;;;;;10.77;87.58;101501.72;4936251;29;20358;-87
2021/04/16 09:00:52;;;;;;;34.60;32.72;;;;;;;10.36;81.30;101491.66;4939561;29;20087;-88
2021/04/16 09:03:24;;;;;;;34.90;33.00;;;;;;;10.03;76.60;101501.81;4932499;29;20079;-87
2021/04/16 09:05:55;;;;;;;34.38;32.55;;;;;;;11.07;68.07;101504.28;4929997;29;20055;-86
2021/04/16 09:08:26;;;;;;;33.08;31.17;;;;;;;11.99;82.20;101501.56;4931285;29;20445;-87
2021/04/16 09:10:57;;;;;;;33.30;31.33;;;;;;;11.40;76.99;101497.44;4935815;29;20484;-87
2021/04/16 09:14:00;;;;;;;32.03;30.23;;;;;;;11.20;86.76;101504.44;4930552;29;20043;-86
2021/04/16 09:16:57;;;;;;;33.20;31.20;;;;;;;10.95;87.91;101502.16;4929638;29;20067;-87
2021/04/16 09:19:57;;;;;;;34.85;33.05;;;;;;;11.30;100.00;101502.25;4934018;29;20054;-87
2021/04/16 09:22:35;;;;;;;36.90;34.72;;;;;;;11.13;93.32;101504.34;4931660;29;20067;-88
2021/04/16 09:25:05;;;;;;;34.20;32.30;;;;;;;11.65;90.08;101510.34;4929713;29;20064;-87
2021/04/16 09:27:49;;;;;;;33.58;31.77;;;;;;;10.92;95.06;101507.00;4929893;29;20052;-88
2021/04/16 09:30:31;;;;;;;32.40;30.50;;;;;;;10.84;83.35;101500.00;4932175;29;20111;-87
2021/04/16 09:33:15;;;;;;;33.63;31.52;;;;;;;10.34;75.57;101483.06;4925523;29;20051;-87
2021/04/16 09:36:05;;;;;;;32.60;30.80;;;;;;;10.78;81.78;101477.66;4925525;29;20192;-88
2021/04/16 09:38:55;;;;;;;34.40;32.53;;;;;;;10.82;100.00;101478.09;4929215;29;20066;-87
2021/04/16 09:41:35;;;;;;;33.63;31.55;;;;;;;10.73;79.47;101482.69;4931559;29;20242;-88
2021/04/16 09:44:43;;;;;;;32.47;30.55;;;;;;;11.83;100.00;101475.22;4930450;29;20066;-88
2021/04/16 09:47:09;;;;;;;34.45;32.33;;;;;;;11.80;92.12;101481.78;4935902;29;20501;-89
2021/04/16 09:49:55;;;;;;;32.35;30.55;;;;;;;11.23;99.15;101488.91;4932288;29;20055;-88
2021/04/16 09:53:11;;;;;;;33.72;31.88;;;;;;;11.51;98.28;101481.97;4924960;29;20072;-87
2021/04/16 09:55:48;;;;;;;31.90;30.20;;;;;;;10.92;77.84;101481.28;4925003;29;20083;-87
2021/04/16 09:58:49;;;;;;;30.48;28.77;;;;;;;11.53;75.43;101480.78;4929714;29;20618;-87
2021/04/16 10:01:19;;;;;;;32.65;30.77;;;;;;;11.50;65.93;101475.00;4923562;29;20065;-88
2021/04/16 10:03:54;;;;;;;30.60;28.88;;;;;;;11.48;65.14;101461.91;4928363;29;20051;-88
2021/04/16 10:06:35;;;;;;;29.50;27.92;;;;;;;12.34;90.46;101465.06;4929871;29;20061;-87
2021/04/16 10:09:12;;;;;;;31.92;29.98;;;;;;;10.96;58.87;101455.13;4925110;29;20055;-87
2021/04/16 10:11:49;;;;;;;32.45;30.50;;;;;;;11.39;71.68;101468.38;4924310;29;20071;-87
2021/04/16 10:14:21;;;;;;;31.92;30.13;;;;;;;10.35;66.08;101468.78;4924900;29;20047;-88
2021/04/16 10:16:56;;;;;;;29.23;27.67;;;;;;;10.94;89.45;101462.47;4929392;29;20199;-88
2021/04/16 10:19:26;;;;;;;31.00;29.00;;;;;;;11.06;100.00;101470.75;4925443;29;20059;-88
2021/04/16 10:21:57;;;;;;;30.83;29.33;;;;;;;10.78;87.43;101461.69;4924970;29;20063;-88
2021/04/16 12:38:15;;;;;;;31.58;29.73;;;;;;;13.33;53.14;101396.91;4909433;29;20059;-88
2021/04/16 12:40:41;;;;;;;31.98;30.35;;;;;;;12.71;52.82;101384.78;4911219;29;20067;-88
2021/04/16 12:43:08;;;;;;;32.33;30.48;;;;;;;12.09;67.78;101400.03;4908769;29;20063;-88
2021/04/16 12:45:34;;;;;;;31.83;30.40;;;;;;;12.12;85.71;101400.44;4910963;29;20059;-88
2021/04/16 12:48:06;;;;;;;34.67;33.08;;;;;;;12.05;71.99;101404.94;4909696;29;20147;-87
2021/04/16 12:50:35;;;;;;;33.50;31.80;;;;;;;12.06;85.09;101392.44;4901988;29;20486;-88
2021/04/16 12:53:01;;;;;;;35.65;33.85;;;;;;;11.38;87.31;101390.44;4911796;29;20052;-88
2021/04/16 12:55:31;;;;;;;30.50;28.98;;;;;;;11.40;85.17;101387.56;4914037;29;20059;-87
2021/04/16 12:58:01;;;;;;;31.73;29.98;;;;;;;11.27;66.93;101396.28;4911762;29;20044;-87
2021/04/16 13:00:31;;;;;;;29.40;27.95;;;;;;;11.15;71.08;101392.50;4907147;29;20048;-88
2021/04/16 13:03:01;;;;;;;31.85;30.35;;;;;;;11.11;76.55;101396.56;4907959;29;20474;-87
2021/04/16 13:05:28;;;;;;;31.08;29.67;;;;;;;11.38;100.00;101402.91;4909787;29;20056;-89
2021/04/16 13:07:55;;;;;;;30.75;29.25;;;;;;;10.91;61.95;101405.19;4910256;29;20059;-88
2021/04/16 13:10:22;;;;;;;29.75;28.15;;;;;;;10.65;65.10;101405.78;4910429;29;20063;-87
2021/04/16 13:12:49;;;;;;;27.58;26.02;;;;;;;11.24;69.75;101408.13;4912657;29;20533;-87
2021/04/16 13:15:19;;;;;;;27.35;25.95;;;;;;;11.75;100.00;101408.84;4913304;29;20052;-85
2021/04/16 13:17:49;;;;;;;29.60;27.80;;;;;;;10.96;57.48;101413.41;4913770;29;20537;-88
2021/04/16 13:20:17;;;;;;;28.40;26.73;;;;;;;11.01;77.73;101418.16;4912664;29;20064;-89
2021/04/16 13:22:44;;;;;;;29.25;27.45;;;;;;;11.62;66.21;101413.09;4911134;29;20052;-89
2021/04/16 13:25:15;;;;;;;28.63;27.02;;;;;;;11.67;57.89;101407.16;4908752;29;20127;-88
2021/04/16 13:27:42;;;;;;;29.20;27.65;;;;;;;11.55;81.97;101414.06;4913153;29;20111;-88
2021/04/16 13:30:11;;;;;;;27.10;25.90;;;;;;;11.82;100.00;101401.72;4914222;29;20348;-88
2021/04/16 13:32:42;;;;;;;28.10;26.70;;;;;;;11.20;64.29;101417.50;4915330;29;20056;-88
2021/04/16 13:35:21;;;;;;;28.75;27.25;;;;;;;11.12;91.42;101419.47;4911722;29;20154;-88
2021/04/16 13:37:47;;;;;;;28.27;26.80;;;;;;;11.53;85.34;101419.59;4911191;29;20056;-88
2021/04/16 13:40:14;;;;;;;27.05;25.65;;;;;;;12.01;100.00;101416.16;4911079;29;20056;-88
2021/04/16 13:42:41;;;;;;;29.27;27.85;;;;;;;11.99;69.67;101419.03;4910803;29;20051;-87
2021/04/16 13:45:10;;;;;;;29.33;27.60;;;;;;;11.72;86.35;101409.25;4913380;29;20044;-88
2021/04/16 13:47:42;;;;;;;30.35;28.60;;;;;;;11.63;98.62;101416.56;4909414;29;20115;-87
2021/04/16 13:50:15;;;;;;;30.75;28.95;;;;;;;11.99;62.71;101405.72;4912756;29;20059;-88
2021/04/16 13:52:42;;;;;;;32.63;30.73;;;;;;;12.31;56.82;101414.84;4912562;29;20181;-88
2021/04/16 13:55:09;;;;;;;26.45;24.95;;;;;;;12.04;66.24;101419.28;4910271;29;20059;-87
2021/04/16 13:57:36;;;;;;;29.80;28.17;;;;;;;12.26;56.22;101419.97;4910591;29;20399;-89